Miles, Iowa
Current Conditions -  °F | °C
As of 8:15 PM on Monday 22 Dec 2014 (Local Time) from KSFY Reporting Station
Haze Haze  
Wind Chill: 33°   Ceiling: 400
Heat Index: 40°   Visibility: 4mi
Dew Point: 38°   Wind: 10mph
Humidity: 95%   Direction: 100°E
Pressure: 29.56"   Gusts: NA
Location:  42.05°N, 90.32°W
Report Text: KSFY 230215Z AUTO 10009KT 4SM BR OVC004 04/04 A2956 RMK AO2 T00430035
Loading
Personal Weather Stations






























Interactive Weather Map New forecast layout! Learn more

10-Day Weather Forecast

Advertisements
Track Severe Weather on mobile